Time;durP1;ratioP1;P1;durP2;ratioP2;P2;SDS_P1;SDS_P2;PMS_P1;PMS_P2;Temp;Humidity;BMP_temperature;BMP_pressure;BME280_temperature;BME280_humidity;BME280_pressure;Samples;Min_cycle;Max_cycle;Signal;HPM_P1;HPM_P2
2021/04/20 00:02:05;;;;;;;3.33;2.73;;;22.20;49.60;;;;;;5037106;28;20216;-86
2021/04/20 00:04:33;;;;;;;4.13;3.10;;;22.20;49.50;;;;;;5036895;28;20202;-86
2021/04/20 00:06:59;;;;;;;3.27;2.97;;;22.20;49.50;;;;;;5036989;28;20383;-86
2021/04/20 00:09:24;;;;;;;2.57;2.37;;;22.20;49.50;;;;;;5037043;28;20426;-86
2021/04/20 00:11:50;;;;;;;4.60;2.83;;;22.20;49.50;;;;;;5036651;28;20187;-85
2021/04/20 00:14:16;;;;;;;3.40;2.80;;;22.20;49.60;;;;;;5019687;28;20157;-86
2021/04/20 00:16:42;;;;;;;3.07;2.77;;;22.20;49.50;;;;;;5018921;28;20459;-85
2021/04/20 00:19:10;;;;;;;2.70;2.40;;;22.20;49.60;;;;;;5036798;28;20159;-85
2021/04/20 00:21:35;;;;;;;3.50;2.90;;;22.10;49.50;;;;;;5056222;28;20398;-85
2021/04/20 00:24:02;;;;;;;3.10;2.50;;;22.10;49.50;;;;;;5056955;28;20390;-86
2021/04/20 00:26:28;;;;;;;3.17;2.87;;;22.10;49.50;;;;;;5057815;28;20148;-82
2021/04/20 00:28:53;;;;;;;5.00;2.90;;;22.10;49.50;;;;;;5057689;28;20393;-82
2021/04/20 00:31:19;;;;;;;4.20;3.30;;;22.10;49.50;;;;;;5057878;28;20156;-82
2021/04/20 00:33:46;;;;;;;4.00;3.17;;;22.20;49.60;;;;;;5057872;28;20153;-81
2021/04/20 00:36:31;;;;;;;2.97;2.77;;;22.10;49.50;;;;;;5040510;28;20156;-82
2021/04/20 00:38:57;;;;;;;2.93;2.63;;;22.10;49.40;;;;;;5057265;28;20383;-82
2021/04/20 00:41:24;;;;;;;3.00;2.70;;;22.10;49.50;;;;;;5040224;28;20437;-82
2021/04/20 00:43:50;;;;;;;4.73;2.67;;;22.20;49.60;;;;;;5057447;28;20239;-82
2021/04/20 00:46:21;;;;;;;2.73;2.50;;;22.20;49.60;;;;;;5057668;28;20375;-82
2021/04/20 00:48:48;;;;;;;2.87;2.40;;;22.10;49.50;;;;;;5040142;28;20144;-81
2021/04/20 00:51:14;;;;;;;3.03;2.60;;;22.20;49.60;;;;;;5039952;28;20391;-81
2021/04/20 00:53:41;;;;;;;3.17;2.77;;;22.30;49.70;;;;;;5039856;28;20438;-82
2021/04/20 00:56:07;;;;;;;3.00;2.63;;;22.10;49.60;;;;;;5040317;28;20391;-81
2021/04/20 00:58:33;;;;;;;3.00;2.70;;;22.10;49.50;;;;;;5023228;28;20446;-81
2021/04/20 01:00:59;;;;;;;3.30;2.73;;;22.10;50.10;;;;;;5073108;28;20402;-82
2021/04/20 01:03:26;;;;;;;2.57;2.37;;;22.10;49.60;;;;;;5036064;28;20174;-82
2021/04/20 01:05:52;;;;;;;3.20;2.60;;;22.20;49.60;;;;;;5052915;28;20457;-82
2021/04/20 01:08:21;;;;;;;3.63;3.33;;;22.10;49.50;;;;;;5048905;28;20405;-82
2021/04/20 01:10:51;;;;;;;2.93;2.63;;;22.10;49.60;;;;;;5055657;28;20394;-81
2021/04/20 01:13:17;;;;;;;3.53;3.10;;;22.10;49.60;;;;;;5043223;28;20437;-81
2021/04/20 01:15:45;;;;;;;2.90;2.60;;;22.10;49.60;;;;;;5029848;28;20403;-81
2021/04/20 01:18:17;;;;;;;3.03;2.73;;;22.10;49.60;;;;;;5039283;28;20402;-82
2021/04/20 01:20:45;;;;;;;2.97;2.43;;;22.10;49.60;;;;;;5020007;28;20434;-82
2021/04/20 01:23:57;;;;;;;2.90;2.57;;;22.10;49.60;;;;;;5036424;28;20410;-82
2021/04/20 01:26:27;;;;;;;3.17;2.77;;;22.10;49.50;;;;;;5036732;28;20398;-82
2021/04/20 01:28:54;;;;;;;2.80;2.33;;;22.10;49.60;;;;;;5017004;28;20396;-85
2021/04/20 01:31:20;;;;;;;3.23;2.73;;;22.10;49.60;;;;;;5014197;28;20470;-86
2021/04/20 01:33:46;;;;;;;3.00;2.67;;;22.00;49.60;;;;;;5017508;28;20433;-85
2021/04/20 01:36:14;;;;;;;3.10;2.70;;;22.10;49.60;;;;;;5035078;28;20403;-85
2021/04/20 01:38:48;;;;;;;2.50;2.30;;;22.10;49.60;;;;;;5017889;28;20399;-86
2021/04/20 01:41:16;;;;;;;2.93;2.70;;;22.00;49.50;;;;;;5034523;28;20384;-86
2021/04/20 01:44:04;;;;;;;2.30;2.10;;;22.10;49.60;;;;;;5035064;28;20409;-85
2021/04/20 01:46:33;;;;;;;3.97;2.77;;;22.10;49.60;;;;;;5017839;28;20459;-86
2021/04/20 01:48:59;;;;;;;3.00;2.43;;;22.10;49.70;;;;;;5017884;28;20471;-86
2021/04/20 01:51:27;;;;;;;2.20;2.00;;;22.10;49.60;;;;;;5035621;28;20410;-86
2021/04/20 01:53:57;;;;;;;2.70;2.50;;;22.10;49.70;;;;;;5035872;28;20164;-85
2021/04/20 01:56:24;;;;;;;3.63;2.60;;;22.00;49.60;;;;;;5035098;28;20379;-85
2021/04/20 01:58:50;;;;;;;3.23;2.73;;;22.00;49.60;;;;;;5036338;28;20407;-86
2021/04/20 02:01:17;;;;;;;2.70;2.40;;;22.10;49.70;;;;;;5017821;28;20391;-86
2021/04/20 02:03:45;;;;;;;2.70;2.50;;;22.10;49.70;;;;;;5034484;28;20161;-86
2021/04/20 02:06:13;;;;;;;2.90;2.57;;;22.10;49.70;;;;;;5018450;28;20394;-86
2021/04/20 02:08:39;;;;;;;2.50;2.30;;;22.00;49.60;;;;;;5017635;28;20410;-86
2021/04/20 02:11:07;;;;;;;2.70;2.40;;;22.00;49.60;;;;;;5017205;28;20633;-86
2021/04/20 02:13:33;;;;;;;3.13;2.33;;;22.00;49.60;;;;;;5016877;28;20485;-86
2021/04/20 02:16:03;;;;;;;3.10;2.50;;;22.10;49.70;;;;;;5034547;28;20375;-86
2021/04/20 02:18:34;;;;;;;2.73;2.53;;;22.00;49.60;;;;;;5016885;28;20434;-86
2021/04/20 02:21:01;;;;;;;2.73;2.40;;;22.00;49.60;;;;;;5032002;28;20450;-86
2021/04/20 02:23:27;;;;;;;3.10;2.70;;;22.00;49.60;;;;;;5053844;28;20383;-86
2021/04/20 02:25:55;;;;;;;2.90;2.40;;;22.00;49.60;;;;;;5036973;28;20398;-86
2021/04/20 02:28:21;;;;;;;3.13;2.93;;;22.00;49.60;;;;;;5054332;28;20459;-86
2021/04/20 02:30:50;;;;;;;2.37;2.17;;;22.00;49.60;;;;;;5036494;28;20415;-86
2021/04/20 02:33:16;;;;;;;2.97;2.50;;;22.00;49.60;;;;;;5036452;28;20469;-86
2021/04/20 02:35:42;;;;;;;3.07;2.77;;;22.00;49.70;;;;;;5036422;28;20410;-86
2021/04/20 02:38:08;;;;;;;3.40;2.30;;;22.00;49.60;;;;;;5049450;28;20160;-86
2021/04/20 02:40:35;;;;;;;3.00;2.30;;;22.00;49.70;;;;;;5016095;28;20625;-86
2021/04/20 02:43:02;;;;;;;3.50;3.03;;;22.00;49.70;;;;;;5049731;28;20463;-86
2021/04/20 02:45:28;;;;;;;2.77;2.33;;;22.00;49.70;;;;;;5033653;28;20387;-86
2021/04/20 02:47:55;;;;;;;3.17;2.80;;;22.00;49.70;;;;;;5018044;28;20422;-86
2021/04/20 02:50:25;;;;;;;3.33;2.97;;;22.00;49.70;;;;;;5034203;28;20415;-85
2021/04/20 02:52:53;;;;;;;2.80;2.33;;;22.00;49.70;;;;;;5049538;28;20431;-86
2021/04/20 02:55:20;;;;;;;3.37;2.87;;;21.90;50.20;;;;;;5018260;28;20399;-86
2021/04/20 02:57:50;;;;;;;3.33;2.57;;;22.00;49.70;;;;;;5049974;28;20411;-86
2021/04/20 03:00:19;;;;;;;3.13;2.40;;;22.00;49.70;;;;;;5050157;28;20422;-86
2021/04/20 03:02:48;;;;;;;2.20;2.00;;;22.00;49.70;;;;;;5034242;28;20410;-86
2021/04/20 03:05:18;;;;;;;3.50;2.47;;;22.00;49.70;;;;;;5016744;28;20414;-86
2021/04/20 03:07:46;;;;;;;2.63;2.43;;;22.00;49.80;;;;;;5049530;28;20423;-86
2021/04/20 03:10:15;;;;;;;3.10;2.50;;;22.00;49.80;;;;;;5034094;28;20414;-86
2021/04/20 03:12:47;;;;;;;5.87;2.97;;;22.00;49.80;;;;;;5049447;28;20668;-86
2021/04/20 03:15:17;;;;;;;2.70;2.50;;;22.00;49.80;;;;;;5033859;28;20390;-86
2021/04/20 03:17:47;;;;;;;2.73;2.40;;;22.00;49.80;;;;;;5033801;28;20395;-86
2021/04/20 03:20:18;;;;;;;2.60;2.40;;;21.90;50.30;;;;;;5033455;28;20395;-85
2021/04/20 03:22:46;;;;;;;2.33;2.13;;;22.00;49.80;;;;;;5034074;28;20379;-85
2021/04/20 03:25:19;;;;;;;2.70;2.10;;;21.90;49.80;;;;;;5016380;28;20411;-85
2021/04/20 03:27:54;;;;;;;3.03;2.83;;;21.90;49.80;;;;;;5033674;28;20387;-85
2021/04/20 03:30:29;;;;;;;2.83;2.13;;;21.90;49.80;;;;;;5017080;28;20398;-86
2021/04/20 03:33:17;;;;;;;2.67;2.47;;;21.90;49.80;;;;;;5016428;28;20441;-85
2021/04/20 03:36:18;;;;;;;3.60;2.63;;;21.90;49.80;;;;;;5016477;28;20418;-85
2021/04/20 03:38:50;;;;;;;3.40;2.67;;;21.90;49.80;;;;;;5025410;28;20384;-85
2021/04/20 03:41:27;;;;;;;2.70;2.37;;;21.90;49.90;;;;;;5016010;28;20415;-85
2021/04/20 03:43:56;;;;;;;2.50;2.23;;;21.90;49.90;;;;;;5017051;28;20418;-85
2021/04/20 03:46:27;;;;;;;2.83;2.53;;;21.90;49.90;;;;;;5033625;28;20614;-85
2021/04/20 03:49:05;;;;;;;2.83;2.50;;;21.90;49.90;;;;;;5033878;28;20439;-85
2021/04/20 03:51:32;;;;;;;2.97;2.60;;;21.80;49.80;;;;;;5017919;28;20418;-85
2021/04/20 03:54:07;;;;;;;2.90;2.57;;;21.80;49.80;;;;;;5036882;28;20402;-85
2021/04/20 03:56:33;;;;;;;2.50;2.30;;;21.90;49.90;;;;;;5036958;28;20383;-85
2021/04/20 03:59:02;;;;;;;2.47;2.27;;;21.80;49.80;;;;;;5036779;28;20372;-85
2021/04/20 04:01:32;;;;;;;3.00;2.63;;;21.80;49.80;;;;;;5019528;28;20387;-85
2021/04/20 04:03:58;;;;;;;2.77;2.30;;;21.80;49.80;;;;;;5036864;28;20629;-85
2021/04/20 04:06:25;;;;;;;2.97;2.50;;;21.90;49.90;;;;;;5019445;28;20399;-85
2021/04/20 04:08:53;;;;;;;3.10;2.23;;;21.80;49.90;;;;;;5019289;28;20153;-85
2021/04/20 04:11:23;;;;;;;3.00;2.40;;;21.90;49.90;;;;;;5019439;28;20438;-85
2021/04/20 04:14:26;;;;;;;2.30;2.10;;;21.80;49.90;;;;;;5020140;28;20435;-85
2021/04/20 04:16:52;;;;;;;2.40;1.90;;;21.90;49.90;;;;;;5019487;28;20403;-85
2021/04/20 04:19:57;;;;;;;3.40;2.50;;;21.80;50.50;;;;;;5021970;28;20404;-85
2021/04/20 04:22:35;;;;;;;2.70;2.30;;;21.80;49.90;;;;;;4977052;29;20383;-86
2021/04/20 04:25:05;;;;;;;2.40;2.20;;;21.80;49.90;;;;;;4976705;29;20453;-85
2021/04/20 04:27:38;;;;;;;2.97;2.40;;;21.80;50.00;;;;;;4960214;29;20466;-85
2021/04/20 04:30:11;;;;;;;2.40;2.10;;;21.80;49.90;;;;;;4976199;29;20513;-85
2021/04/20 04:32:42;;;;;;;2.10;1.90;;;21.80;49.90;;;;;;4960084;29;20426;-85
2021/04/20 04:35:09;;;;;;;2.97;2.67;;;21.80;49.90;;;;;;4960285;29;20465;-85
2021/04/20 04:37:37;;;;;;;3.27;2.47;;;21.90;49.90;;;;;;4960020;29;20410;-85
2021/04/20 04:40:08;;;;;;;2.50;2.20;;;21.80;49.80;;;;;;4976992;29;20410;-86
2021/04/20 04:42:35;;;;;;;2.80;2.43;;;21.80;49.80;;;;;;4945058;29;20434;-85
2021/04/20 04:45:05;;;;;;;2.17;1.93;;;21.80;49.80;;;;;;4976533;29;20422;-84
2021/04/20 04:47:33;;;;;;;2.40;2.20;;;21.90;49.80;;;;;;4977094;29;20636;-85
2021/04/20 04:50:00;;;;;;;3.07;2.07;;;21.90;49.80;;;;;;4960180;29;20414;-87
2021/04/20 04:52:27;;;;;;;2.40;2.20;;;21.90;49.70;;;;;;4992016;28;20435;-86
2021/04/20 04:54:53;;;;;;;1.77;1.60;;;21.90;49.60;;;;;;5036967;28;20410;-86
2021/04/20 04:57:21;;;;;;;2.53;2.33;;;22.00;49.70;;;;;;5019733;28;20400;-86
2021/04/20 04:59:48;;;;;;;3.13;2.53;;;21.90;49.50;;;;;;5035777;28;20454;-85
2021/04/20 05:02:14;;;;;;;2.43;1.90;;;22.00;49.60;;;;;;5018816;28;20423;-85
2021/04/20 05:04:40;;;;;;;2.80;2.60;;;22.00;49.60;;;;;;5035272;28;20502;-85
2021/04/20 05:07:06;;;;;;;2.67;2.07;;;22.00;49.60;;;;;;5036372;28;20384;-85
2021/04/20 05:09:32;;;;;;;2.60;1.90;;;22.00;49.50;;;;;;5018868;28;20643;-85
2021/04/20 05:11:58;;;;;;;2.47;2.27;;;22.00;49.50;;;;;;5036163;28;20423;-85
2021/04/20 05:14:25;;;;;;;2.33;2.13;;;22.00;49.50;;;;;;5035262;28;20183;-85
2021/04/20 05:16:53;;;;;;;2.23;2.03;;;22.10;49.60;;;;;;5018643;28;20633;-85
2021/04/20 05:19:26;;;;;;;2.87;2.57;;;22.10;50.10;;;;;;5018855;28;20395;-86
2021/04/20 05:21:59;;;;;;;2.27;2.07;;;22.10;49.50;;;;;;5035812;28;20400;-86
2021/04/20 05:24:25;;;;;;;1.90;1.80;;;22.10;49.50;;;;;;5018531;28;20403;-84
2021/04/20 05:26:51;;;;;;;2.17;1.97;;;22.10;49.50;;;;;;5035386;28;20495;-86
2021/04/20 05:29:17;;;;;;;2.60;2.33;;;22.10;49.50;;;;;;5018339;28;20407;-85
2021/04/20 05:31:44;;;;;;;2.80;2.23;;;22.10;49.50;;;;;;5018189;28;20396;-86
2021/04/20 05:34:10;;;;;;;2.60;1.90;;;22.10;49.50;;;;;;5018916;28;20387;-84
2021/04/20 05:36:37;;;;;;;2.70;2.50;;;22.10;49.50;;;;;;5020091;28;20466;-86
2021/04/20 05:39:13;;;;;;;2.50;2.30;;;22.10;49.50;;;;;;5012300;28;20603;-87
2021/04/20 05:41:40;;;;;;;2.87;2.40;;;22.10;49.50;;;;;;5009294;28;20430;-87
2021/04/20 05:44:08;;;;;;;4.60;2.90;;;22.10;49.50;;;;;;5007512;28;20446;-87
2021/04/20 05:46:38;;;;;;;2.97;2.43;;;22.10;50.10;;;;;;5007898;28;20419;-86
2021/04/20 05:49:05;;;;;;;3.33;3.03;;;22.10;49.50;;;;;;5026383;28;20403;-87
2021/04/20 05:51:34;;;;;;;3.30;2.77;;;22.10;49.50;;;;;;5008029;28;20408;-87
2021/04/20 05:54:00;;;;;;;2.60;2.40;;;22.10;49.50;;;;;;5025620;28;20407;-84
2021/04/20 05:56:26;;;;;;;3.03;2.60;;;22.10;49.50;;;;;;5027341;28;20765;-86
2021/04/20 05:58:54;;;;;;;2.70;2.43;;;22.10;49.50;;;;;;5008587;28;20176;-87
2021/04/20 06:01:22;;;;;;;2.57;2.37;;;22.20;49.60;;;;;;5025359;28;20400;-87
2021/04/20 06:03:52;;;;;;;2.93;2.70;;;22.10;49.50;;;;;;5006910;28;20419;-86
2021/04/20 06:06:23;;;;;;;2.10;1.90;;;22.10;49.50;;;;;;5007762;28;20537;-87
2021/04/20 06:08:54;;;;;;;3.00;2.67;;;22.10;49.50;;;;;;5025149;28;20425;-87
2021/04/20 06:11:21;;;;;;;3.60;2.87;;;22.20;49.60;;;;;;5025474;28;20407;-86
2021/04/20 06:13:48;;;;;;;2.50;2.30;;;22.20;49.60;;;;;;5008069;28;20486;-87
2021/04/20 06:16:14;;;;;;;2.50;2.30;;;22.20;49.60;;;;;;5008962;28;20470;-87
2021/04/20 06:18:41;;;;;;;2.90;2.37;;;22.20;49.60;;;;;;5008850;28;20411;-87
2021/04/20 06:21:08;;;;;;;3.30;2.63;;;22.20;49.60;;;;;;5013144;28;20451;-87
2021/04/20 06:23:36;;;;;;;2.60;2.10;;;22.30;49.70;;;;;;5009821;28;20505;-87
2021/04/20 06:26:05;;;;;;;3.50;2.57;;;22.30;49.50;;;;;;5006872;28;20419;-88
2021/04/20 06:28:32;;;;;;;3.10;2.80;;;22.30;49.40;;;;;;5008471;28;20542;-88
2021/04/20 06:31:00;;;;;;;3.50;2.77;;;22.40;49.50;;;;;;5008525;28;20423;-88
2021/04/20 06:33:33;;;;;;;3.63;2.60;;;22.40;49.40;;;;;;5024212;28;20597;-87
2021/04/20 06:36:08;;;;;;;2.50;2.00;;;22.40;49.40;;;;;;5008109;28;20399;-87
2021/04/20 06:38:36;;;;;;;2.40;2.07;;;22.40;49.30;;;;;;5008377;28;20402;-87
2021/04/20 06:41:04;;;;;;;2.70;2.50;;;22.50;49.40;;;;;;5008099;28;20454;-87
2021/04/20 06:43:40;;;;;;;4.20;2.90;;;22.50;49.40;;;;;;5037787;28;20498;-86
2021/04/20 06:46:20;;;;;;;2.70;2.30;;;22.50;49.40;;;;;;5045007;28;20394;-87
2021/04/20 06:48:48;;;;;;;2.70;1.93;;;22.50;49.40;;;;;;5027601;28;20426;-86
2021/04/20 06:51:37;;;;;;;2.77;2.40;;;22.60;49.40;;;;;;5027253;28;20513;-87
2021/04/20 06:54:13;;;;;;;2.37;2.00;;;22.60;49.40;;;;;;5035246;28;20426;-87
2021/04/20 06:56:40;;;;;;;2.00;1.60;;;22.60;49.40;;;;;;5026031;28;20464;-87
2021/04/20 06:59:26;;;;;;;2.30;2.10;;;22.70;49.50;;;;;;5026240;28;20415;-88
2021/04/20 07:02:08;;;;;;;3.80;2.80;;;22.70;49.50;;;;;;5027437;28;20448;-87
2021/04/20 07:04:58;;;;;;;2.20;2.00;;;22.60;49.40;;;;;;5030295;28;20418;-87
2021/04/20 07:07:44;;;;;;;2.80;1.83;;;22.70;49.50;;;;;;5030067;28;20442;-87
2021/04/20 07:10:16;;;;;;;3.10;2.13;;;22.70;49.60;;;;;;5029103;28;20457;-87
2021/04/20 07:12:46;;;;;;;2.60;2.20;;;22.70;49.60;;;;;;5029463;28;20461;-87
2021/04/20 07:15:20;;;;;;;4.80;2.23;;;22.70;49.50;;;;;;5031746;28;20415;-81
2021/04/20 07:18:20;;;;;;;2.17;1.97;;;22.70;49.60;;;;;;5034305;28;20428;-82
2021/04/20 07:21:05;;;;;;;3.50;2.10;;;22.70;49.40;;;;;;5032610;28;20437;-81
2021/04/20 07:23:42;;;;;;;2.50;2.30;;;22.70;49.40;;;;;;5028726;28;20410;-83
2021/04/20 07:26:26;;;;;;;2.23;1.60;;;22.80;49.50;;;;;;5047396;28;20406;-82
2021/04/20 07:29:20;;;;;;;9.53;2.20;;;22.80;49.50;;;;;;5033394;28;20425;-83
2021/04/20 07:32:50;;;;;;;;;;;;;;;;;;;;;
2021/04/20 07:35:53;;;;;;;3.30;2.10;;;22.80;49.50;;;;;;4973616;29;20441;-82
2021/04/20 07:38:55;;;;;;;2.03;1.83;;;22.80;49.60;;;;;;4938090;29;20454;-84
2021/04/20 07:41:58;;;;;;;2.43;2.00;;;22.80;49.60;;;;;;4954067;29;20417;-84
2021/04/20 07:44:33;;;;;;;4.87;2.13;;;22.70;49.50;;;;;;4957350;29;20478;-84
2021/04/20 07:47:40;;;;;;;1.80;1.70;;;22.80;49.60;;;;;;4971465;29;20504;-85
2021/04/20 07:50:16;;;;;;;2.80;2.10;;;22.80;49.50;;;;;;4929701;29;20418;-85
2021/04/20 07:52:56;;;;;;;2.33;2.00;;;22.80;49.50;;;;;;4970536;29;20438;-84
2021/04/20 07:55:35;;;;;;;1.83;1.57;;;22.80;49.50;;;;;;4969856;29;20427;-85
2021/04/20 07:58:07;;;;;;;2.50;2.30;;;22.90;49.60;;;;;;4970906;29;20410;-85
2021/04/20 08:00:45;;;;;;;2.80;1.93;;;22.90;49.60;;;;;;4953766;29;20508;-85
2021/04/20 08:03:10;;;;;;;1.67;1.50;;;22.90;49.60;;;;;;4971129;29;20493;-85
2021/04/20 08:05:56;;;;;;;2.10;1.50;;;22.90;49.60;;;;;;4970569;29;20426;-85
2021/04/20 08:08:47;;;;;;;2.10;1.90;;;22.90;49.60;;;;;;4953835;29;20721;-86
2021/04/20 08:11:44;;;;;;;2.30;2.07;;;22.90;49.60;;;;;;5027886;28;20413;-85
2021/04/20 08:14:45;;;;;;;2.13;1.93;;;22.90;49.60;;;;;;5029694;28;20564;-85
2021/04/20 08:17:31;;;;;;;2.23;1.90;;;22.90;49.50;;;;;;5027068;28;20420;-85
2021/04/20 08:19:58;;;;;;;2.27;2.07;;;22.90;49.60;;;;;;5010665;28;20411;-85
2021/04/20 08:22:26;;;;;;;2.40;1.70;;;22.90;49.60;;;;;;5025249;28;20414;-85
2021/04/20 08:25:04;;;;;;;2.00;1.80;;;22.90;49.60;;;;;;5046696;28;20437;-84
2021/04/20 08:27:50;;;;;;;1.90;1.73;;;23.00;49.60;;;;;;5041143;28;20414;-84
2021/04/20 08:30:33;;;;;;;2.37;1.77;;;23.00;49.60;;;;;;5027365;28;20402;-84
2021/04/20 08:33:02;;;;;;;2.13;1.93;;;23.00;49.70;;;;;;5027036;28;20802;-84
2021/04/20 08:35:32;;;;;;;2.77;1.77;;;23.00;49.50;;;;;;5035621;28;20402;-85
2021/04/20 08:38:31;;;;;;;1.87;1.50;;;23.00;49.50;;;;;;5026407;28;20496;-84
2021/04/20 08:41:36;;;;;;;1.70;1.40;;;23.10;49.60;;;;;;5042168;28;20426;-84
2021/04/20 08:44:47;;;;;;;1.90;1.73;;;23.00;49.60;;;;;;5021068;28;20411;-84
2021/04/20 08:47:28;;;;;;;1.53;1.40;;;23.00;49.60;;;;;;5024856;28;20422;-85
2021/04/20 08:50:06;;;;;;;2.27;1.70;;;23.00;49.60;;;;;;5044446;28;20509;-84
2021/04/20 08:52:56;;;;;;;2.07;1.83;;;23.00;49.60;;;;;;5027494;28;20454;-84
2021/04/20 08:56:04;;;;;;;4.57;2.03;;;23.10;49.60;;;;;;5028394;28;20415;-85
2021/04/20 08:58:51;;;;;;;2.00;1.60;;;23.10;49.70;;;;;;4998635;28;20418;-84
2021/04/20 09:01:54;;;;;;;2.47;2.10;;;23.10;49.70;;;;;;5066053;28;20415;-83
2021/04/20 09:04:42;;;;;;;2.00;1.80;;;23.10;49.60;;;;;;5033362;28;20406;-84
2021/04/20 09:07:17;;;;;;;2.13;1.80;;;23.10;49.70;;;;;;5036400;28;20403;-83
2021/04/20 09:09:47;;;;;;;1.93;1.73;;;23.10;49.70;;;;;;5019632;28;20470;-83
2021/04/20 09:12:15;;;;;;;1.80;1.47;;;23.00;49.60;;;;;;5053622;28;20490;-83
2021/04/20 09:14:47;;;;;;;1.93;1.73;;;23.10;49.60;;;;;;5037011;28;20437;-81
2021/04/20 09:17:19;;;;;;;1.83;1.30;;;23.10;49.60;;;;;;5036214;28;20466;-83
2021/04/20 09:20:05;;;;;;;2.47;1.80;;;23.10;49.50;;;;;;5037537;28;20406;-83
2021/04/20 09:23:03;;;;;;;2.10;1.90;;;23.10;49.50;;;;;;5036421;28;20414;-83
2021/04/20 09:25:35;;;;;;;2.03;1.87;;;23.10;49.50;;;;;;5050501;28;20414;-84
2021/04/20 09:28:23;;;;;;;2.30;1.70;;;23.10;49.60;;;;;;5031384;28;20426;-85
2021/04/20 09:31:06;;;;;;;1.80;1.60;;;23.10;49.60;;;;;;5030776;28;20448;-84
2021/04/20 09:33:49;;;;;;;2.47;2.13;;;23.20;49.70;;;;;;5048406;28;20461;-86
2021/04/20 09:36:17;;;;;;;2.30;2.10;;;23.20;49.60;;;;;;5031857;28;20912;-84
2021/04/20 09:38:45;;;;;;;2.10;1.70;;;23.10;49.60;;;;;;5033303;28;20749;-84
2021/04/20 09:41:16;;;;;;;2.30;2.10;;;23.10;49.60;;;;;;5033690;28;20437;-84
2021/04/20 09:44:11;;;;;;;2.30;1.73;;;23.20;49.60;;;;;;5051582;28;20477;-84
2021/04/20 09:47:21;;;;;;;2.57;2.30;;;23.10;49.50;;;;;;5068343;28;20410;-84
2021/04/20 09:50:08;;;;;;;2.50;2.10;;;23.20;49.60;;;;;;5052188;28;20426;-83
2021/04/20 09:53:17;;;;;;;;;;;;;;;;;;;;;
2021/04/20 09:56:09;;;;;;;2.90;1.70;;;23.20;49.70;;;;;;5051916;28;20415;-83
2021/04/20 09:58:45;;;;;;;1.93;1.67;;;23.20;49.70;;;;;;5035113;28;20410;-84
2021/04/20 10:01:37;;;;;;;1.87;1.60;;;23.20;49.70;;;;;;5037385;28;20406;-83
2021/04/20 10:04:21;;;;;;;1.70;1.60;;;23.20;49.70;;;;;;5053068;28;20416;-85
2021/04/20 10:07:17;;;;;;;4.63;2.33;;;23.20;49.70;;;;;;5034212;28;20399;-84
2021/04/20 10:09:58;;;;;;;1.90;1.70;;;23.20;49.80;;;;;;5064133;28;20461;-84
2021/04/20 10:12:53;;;;;;;1.80;1.70;;;23.20;49.70;;;;;;5018466;28;20462;-85
2021/04/20 10:15:46;;;;;;;2.00;1.57;;;23.20;49.70;;;;;;5047602;28;20402;-85
2021/04/20 10:18:35;;;;;;;2.60;2.00;;;23.20;49.70;;;;;;5022676;28;20422;-85
2021/04/20 10:21:13;;;;;;;2.07;1.87;;;23.20;49.70;;;;;;5018992;28;20444;-85
2021/04/20 10:23:57;;;;;;;2.00;1.80;;;23.20;49.70;;;;;;5010201;28;20431;-84
2021/04/20 10:26:43;;;;;;;2.20;2.00;;;23.20;49.70;;;;;;5027370;28;20412;-85
2021/04/20 10:29:31;;;;;;;2.10;1.90;;;23.20;49.70;;;;;;5014495;28;20419;-83
2021/04/20 10:32:21;;;;;;;2.00;1.80;;;23.30;49.70;;;;;;5028928;28;20466;-83
2021/04/20 10:34:55;;;;;;;2.17;1.60;;;23.30;49.70;;;;;;5009246;28;20411;-84
2021/04/20 10:37:33;;;;;;;2.10;1.80;;;23.30;49.80;;;;;;5012225;28;20495;-84
2021/04/20 10:40:01;;;;;;;3.10;1.73;;;23.30;49.70;;;;;;5008800;28;20757;-85
2021/04/20 10:42:29;;;;;;;1.60;1.47;;;23.30;49.70;;;;;;5009410;28;20462;-88
2021/04/20 10:45:00;;;;;;;2.13;2.00;;;23.30;49.70;;;;;;5009332;28;20522;-87
2021/04/20 10:47:27;;;;;;;1.80;1.70;;;23.30;49.70;;;;;;5026767;28;20391;-86
2021/04/20 10:49:57;;;;;;;2.30;2.10;;;23.30;49.70;;;;;;5025841;28;20426;-87
2021/04/20 10:52:30;;;;;;;2.73;2.53;;;23.30;49.60;;;;;;5008884;28;20451;-86
2021/04/20 10:55:04;;;;;;;2.00;1.80;;;23.30;49.60;;;;;;5024722;28;20455;-86
2021/04/20 10:57:32;;;;;;;2.80;2.10;;;23.30;49.60;;;;;;5008335;28;20420;-87
2021/04/20 11:00:00;;;;;;;2.73;2.53;;;23.30;49.60;;;;;;5007810;28;20461;-87
2021/04/20 11:02:36;;;;;;;2.70;2.40;;;23.30;49.50;;;;;;5014539;28;20426;-87
2021/04/20 11:05:03;;;;;;;3.07;2.63;;;23.30;49.50;;;;;;5015279;28;20446;-87
2021/04/20 11:07:35;;;;;;;2.90;2.57;;;23.30;49.40;;;;;;5015547;28;20426;-86
2021/04/20 11:10:06;;;;;;;3.63;2.80;;;23.30;49.40;;;;;;5014894;28;20902;-87
2021/04/20 11:12:33;;;;;;;3.27;2.97;;;23.30;49.40;;;;;;5014243;28;20512;-86
2021/04/20 11:15:00;;;;;;;3.80;3.10;;;23.30;49.40;;;;;;5014909;28;20450;-86
2021/04/20 11:17:37;;;;;;;3.57;3.27;;;23.30;49.90;;;;;;5014491;28;20422;-86
2021/04/20 11:24:03;;;;;;;2.90;2.60;;;23.30;49.40;;;;;;5028493;28;20405;-86
2021/04/20 11:26:36;;;;;;;3.10;2.80;;;23.20;49.40;;;;;;5011533;28;20425;-86
2021/04/20 11:29:25;;;;;;;3.33;3.03;;;23.20;49.40;;;;;;5028107;28;20411;-86
2021/04/20 11:31:53;;;;;;;3.10;2.80;;;23.20;49.40;;;;;;5028463;28;20475;-86
2021/04/20 11:34:27;;;;;;;3.60;3.10;;;23.20;49.40;;;;;;5032316;28;21016;-86
2021/04/20 11:37:02;;;;;;;3.50;3.13;;;23.20;49.50;;;;;;5032765;28;20422;-87
2021/04/20 11:40:06;;;;;;;4.37;3.97;;;23.10;49.40;;;;;;5031203;28;20462;-87
2021/04/20 11:42:40;;;;;;;3.33;2.80;;;23.10;49.40;;;;;;5013236;28;20391;-88
2021/04/20 11:45:24;;;;;;;3.73;3.43;;;23.10;49.60;;;;;;5030602;28;20415;-87
2021/04/20 11:48:00;;;;;;;3.80;3.50;;;23.00;49.50;;;;;;5031161;28;20478;-88
2021/04/20 11:51:01;;;;;;;4.80;3.97;;;23.00;49.60;;;;;;5012827;28;20402;-87
2021/04/20 11:53:29;;;;;;;3.87;3.50;;;23.00;49.50;;;;;;5009402;28;20475;-87
2021/04/20 11:56:00;;;;;;;3.77;3.47;;;23.00;49.60;;;;;;5013149;28;20445;-88
2021/04/20 11:58:32;;;;;;;4.80;3.97;;;23.00;49.50;;;;;;5030592;28;20421;-87
2021/04/20 12:01:09;;;;;;;4.30;3.87;;;22.90;49.50;;;;;;5013119;28;20423;-88
2021/04/20 12:03:36;;;;;;;7.00;4.33;;;22.90;49.40;;;;;;5013642;28;20465;-88
2021/04/20 12:06:08;;;;;;;5.27;3.33;;;22.90;49.40;;;;;;5013542;28;20411;-87
2021/04/20 12:08:39;;;;;;;4.60;4.20;;;22.90;49.40;;;;;;5011800;28;20423;-87
2021/04/20 12:11:10;;;;;;;4.70;4.10;;;22.90;49.40;;;;;;5012592;28;20885;-88
2021/04/20 12:13:44;;;;;;;4.87;4.47;;;22.90;49.30;;;;;;5012979;28;20545;-89
2021/04/20 12:16:11;;;;;;;6.53;5.10;;;22.90;49.30;;;;;;5030389;28;20384;-88
2021/04/20 12:18:48;;;;;;;4.70;4.13;;;22.90;49.30;;;;;;5030138;28;20475;-87
2021/04/20 12:21:26;;;;;;;5.10;4.60;;;22.80;49.20;;;;;;5014923;28;20497;-88
2021/04/20 12:23:55;;;;;;;7.07;4.73;;;22.90;49.20;;;;;;5014040;28;20428;-87
2021/04/20 12:26:22;;;;;;;5.40;4.90;;;22.90;49.20;;;;;;5031282;28;20407;-87
2021/04/20 12:28:57;;;;;;;6.37;5.57;;;22.80;49.10;;;;;;5031436;28;20416;-87
2021/04/20 12:31:31;;;;;;;5.73;4.83;;;22.80;49.10;;;;;;5029053;28;20418;-87
2021/04/20 12:33:57;;;;;;;6.07;5.47;;;22.80;49.10;;;;;;5014152;28;20977;-87
2021/04/20 12:36:50;;;;;;;7.63;5.03;;;22.80;49.20;;;;;;5013183;28;20423;-87
2021/04/20 12:39:36;;;;;;;7.23;5.53;;;22.80;49.10;;;;;;5031760;28;20411;-89
2021/04/20 12:42:12;;;;;;;5.60;5.10;;;22.70;49.10;;;;;;5031353;28;20400;-89
2021/04/20 12:44:41;;;;;;;5.40;4.90;;;22.80;49.30;;;;;;5013852;28;20762;-89
2021/04/20 12:47:10;;;;;;;5.57;5.07;;;22.80;49.30;;;;;;5031477;28;20461;-87
2021/04/20 12:49:38;;;;;;;8.67;6.03;;;22.80;49.30;;;;;;5030825;28;20771;-88
2021/04/20 12:52:10;;;;;;;10.20;5.60;;;22.70;49.10;;;;;;5011837;28;20481;-90
2021/04/20 12:54:39;;;;;;;6.63;6.03;;;22.80;49.00;;;;;;5029494;28;20422;-87
2021/04/20 12:57:09;;;;;;;6.30;5.30;;;22.70;48.90;;;;;;5010440;28;20470;-86
2021/04/20 12:59:37;;;;;;;7.60;5.50;;;22.70;48.90;;;;;;5028398;28;20786;-89
2021/04/20 13:02:26;;;;;;;5.80;5.17;;;22.70;49.00;;;;;;5029273;28;20419;-86
2021/04/20 13:05:01;;;;;;;6.60;5.43;;;22.70;49.00;;;;;;4996871;28;20423;-88
2021/04/20 13:07:31;;;;;;;7.00;5.60;;;22.70;49.10;;;;;;5030020;28;20399;-89
2021/04/20 13:10:04;;;;;;;7.40;5.90;;;22.70;49.10;;;;;;5013239;28;20446;-88
2021/04/20 13:12:31;;;;;;;5.83;5.33;;;22.70;49.10;;;;;;5030086;28;20558;-88
2021/04/20 13:15:03;;;;;;;6.03;5.30;;;22.70;49.20;;;;;;5031663;28;20404;-88
2021/04/20 13:17:35;;;;;;;6.53;5.40;;;22.70;49.20;;;;;;5014802;28;20435;-88
2021/04/20 13:20:13;;;;;;;6.70;5.30;;;22.60;49.10;;;;;;5030691;28;20403;-88
2021/04/20 13:22:45;;;;;;;5.80;5.20;;;22.70;49.20;;;;;;5013098;28;20439;-88
2021/04/20 13:25:21;;;;;;;5.93;5.43;;;22.70;49.20;;;;;;5015081;28;20411;-87
2021/04/20 13:28:14;;;;;;;8.03;5.70;;;22.70;49.30;;;;;;5032227;28;20399;-87
2021/04/20 13:31:01;;;;;;;;;;;;;;;;;;;;;
2021/04/20 13:33:29;;;;;;;7.43;5.57;;;22.80;49.80;;;;;;5016857;28;21036;-87